Time,TemperatureF,DewpointF,PressureIn,WindDirection,WindDirectionDegrees,WindSpeedMPH,WindSpeedGustMPH,Humidity,HourlyPrecipIn,Conditions,Clouds,dailyrainin,SoftwareType,DateUTC
2013-09-03 00:02:00,62.8,59.8,29.87,NNW,342,0.0,3.0,90,0.00,,,0.00,WeatherTracker,2013-09-03 07:02:00,
2013-09-03 00:07:00,62.7,60.0,29.87,NNW,342,0.0,1.0,91,0.00,,,0.00,WeatherTracker,2013-09-03 07:07:00,
2013-09-03 00:13:00,62.6,59.9,29.87,NNW,342,0.0,2.0,91,0.00,,,0.00,WeatherTracker,2013-09-03 07:13:00,
2013-09-03 00:18:00,62.5,59.5,29.87,NNW,342,0.0,2.0,90,0.00,,,0.00,WeatherTracker,2013-09-03 07:18:00,
2013-09-03 00:23:00,62.3,59.3,29.87,NNW,342,0.0,1.0,90,0.00,,,0.00,WeatherTracker,2013-09-03 07:23:00,
2013-09-03 00:28:00,62.2,59.2,29.87,NNW,342,0.0,0.0,90,0.00,,,0.00,WeatherTracker,2013-09-03 07:28:00,
2013-09-03 00:33:00,62.3,59.3,29.87,NNW,342,0.0,0.0,90,0.00,,,0.00,WeatherTracker,2013-09-03 07:33:00,
2013-09-03 00:38:00,62.5,59.5,29.87,NNW,342,0.0,2.0,90,0.00,,,0.00,WeatherTracker,2013-09-03 07:38:00,
2013-09-03 00:43:00,62.8,60.1,29.87,NNW,342,0.0,2.0,91,0.00,,,0.00,WeatherTracker,2013-09-03 07:43:00,
2013-09-03 00:48:00,62.8,60.1,29.87,NNW,342,0.0,1.0,91,0.00,,,0.00,WeatherTracker,2013-09-03 07:48:00,
2013-09-03 00:53:00,62.5,59.5,29.87,NNW,342,0.0,2.0,90,0.00,,,0.00,WeatherTracker,2013-09-03 07:53:00,
2013-09-03 00:58:00,62.2,59.2,29.87,NNW,342,0.0,2.0,90,0.00,,,0.00,WeatherTracker,2013-09-03 07:58:00,
2013-09-03 01:03:00,62.0,59.0,29.87,NNW,342,1.0,1.0,90,0.00,,,0.00,WeatherTracker,2013-09-03 08:03:00,
2013-09-03 01:08:00,62.0,59.0,29.87,NNW,342,2.0,3.0,90,0.00,,,0.00,WeatherTracker,2013-09-03 08:08:00,
2013-09-03 01:13:00,62.1,59.1,29.87,NNW,342,2.0,3.0,90,0.00,,,0.00,WeatherTracker,2013-09-03 08:13:00,
2013-09-03 01:18:00,62.2,59.2,29.87,NNW,342,2.0,3.0,90,0.00,,,0.00,WeatherTracker,2013-09-03 08:18:00,
2013-09-03 01:23:00,62.4,59.4,29.87,NNW,342,0.0,4.0,90,0.00,,,0.00,WeatherTracker,2013-09-03 08:23:00,
2013-09-03 01:28:00,62.5,59.2,29.87,NNW,342,0.0,4.0,89,0.00,,,0.00,WeatherTracker,2013-09-03 08:28:00,
2013-09-03 01:33:00,62.4,59.1,29.87,NNW,342,2.0,3.0,89,0.00,,,0.00,WeatherTracker,2013-09-03 08:33:00,
2013-09-03 01:38:00,62.4,58.8,29.87,NNW,342,0.0,3.0,88,0.00,,,0.00,WeatherTracker,2013-09-03 08:38:00,
2013-09-03 01:44:00,62.3,58.4,29.87,NNW,342,0.0,2.0,87,0.00,,,0.00,WeatherTracker,2013-09-03 08:44:00,
2013-09-03 01:49:00,62.3,58.4,29.87,NNW,342,0.0,0.0,87,0.00,,,0.00,WeatherTracker,2013-09-03 08:49:00,
2013-09-03 01:54:00,62.3,58.4,29.87,NNW,342,2.0,2.0,87,0.00,,,0.00,WeatherTracker,2013-09-03 08:54:00,
2013-09-03 01:59:00,62.2,58.0,29.87,NNW,342,0.0,3.0,86,0.00,,,0.00,WeatherTracker,2013-09-03 08:59:00,
2013-09-03 02:04:00,62.1,57.9,29.87,NNW,342,0.0,3.0,86,0.00,,,0.00,WeatherTracker,2013-09-03 09:04:00,
2013-09-03 02:09:00,62.0,57.8,29.87,NNW,342,0.0,0.0,86,0.00,,,0.00,WeatherTracker,2013-09-03 09:09:00,
2013-09-03 02:14:00,61.9,57.7,29.87,NNW,342,0.0,1.0,86,0.00,,,0.00,WeatherTracker,2013-09-03 09:14:00,
2013-09-03 02:19:00,61.9,57.7,29.87,NNW,342,1.0,1.0,86,0.00,,,0.00,WeatherTracker,2013-09-03 09:19:00,
2013-09-03 02:24:00,62.0,57.8,29.87,NNW,342,0.0,2.0,86,0.00,,,0.00,WeatherTracker,2013-09-03 09:24:00,
2013-09-03 02:29:00,61.9,57.7,29.87,NNW,342,1.0,2.0,86,0.00,,,0.00,WeatherTracker,2013-09-03 09:29:00,
2013-09-03 02:34:00,61.9,57.7,29.87,NNW,342,2.0,2.0,86,0.00,,,0.00,WeatherTracker,2013-09-03 09:34:00,
2013-09-03 02:39:00,61.9,57.7,29.87,NNW,342,3.0,3.0,86,0.00,,,0.00,WeatherTracker,2013-09-03 09:39:00,
2013-09-03 02:44:00,61.8,57.6,29.87,NNW,342,0.0,4.0,86,0.00,,,0.00,WeatherTracker,2013-09-03 09:44:00,
2013-09-03 02:49:00,61.9,58.0,29.87,NNW,342,0.0,4.0,87,0.00,,,0.00,WeatherTracker,2013-09-03 09:49:00,
2013-09-03 02:54:00,62.0,57.8,29.87,NNW,342,0.0,3.0,86,0.00,,,0.00,WeatherTracker,2013-09-03 09:54:00,
2013-09-03 02:59:00,61.9,57.7,29.87,NNW,342,0.0,2.0,86,0.00,,,0.00,WeatherTracker,2013-09-03 09:59:00,
2013-09-03 03:04:00,61.8,57.6,29.87,NNW,342,0.0,1.0,86,0.00,,,0.00,WeatherTracker,2013-09-03 10:04:00,
2013-09-03 03:09:00,61.7,57.5,29.87,NNW,342,0.0,0.0,86,0.00,,,0.00,WeatherTracker,2013-09-03 10:09:00,
2013-09-03 03:14:00,61.5,57.3,29.87,NNW,342,0.0,0.0,86,0.00,,,0.00,WeatherTracker,2013-09-03 10:14:00,
2013-09-03 03:19:00,61.5,57.6,29.87,NNW,342,0.0,0.0,87,0.00,,,0.00,WeatherTracker,2013-09-03 10:19:00,
2013-09-03 03:24:00,61.5,57.6,29.87,NNW,342,0.0,2.0,87,0.00,,,0.00,WeatherTracker,2013-09-03 10:24:00,
2013-09-03 03:29:00,61.4,57.5,29.87,NNW,342,0.0,2.0,87,0.00,,,0.00,WeatherTracker,2013-09-03 10:29:00,
2013-09-03 03:35:00,61.4,57.8,29.87,NNW,342,0.0,1.0,88,0.00,,,0.00,WeatherTracker,2013-09-03 10:35:00,
2013-09-03 03:40:00,61.4,57.8,29.87,NNW,342,0.0,0.0,88,0.00,,,0.00,WeatherTracker,2013-09-03 10:40:00,
2013-09-03 03:45:00,61.4,57.8,29.87,NNW,342,0.0,0.0,88,0.00,,,0.00,WeatherTracker,2013-09-03 10:45:00,
2013-09-03 03:50:00,61.3,57.7,29.87,NNW,342,0.0,0.0,88,0.00,,,0.00,WeatherTracker,2013-09-03 10:50:00,
2013-09-03 03:55:00,61.1,57.5,29.87,NNW,342,0.0,0.0,88,0.00,,,0.00,WeatherTracker,2013-09-03 10:55:00,
2013-09-03 04:00:00,61.0,57.4,29.87,NNW,342,0.0,2.0,88,0.00,,,0.00,WeatherTracker,2013-09-03 11:00:00,
2013-09-03 04:05:00,60.9,57.6,29.87,NNW,342,0.0,2.0,89,0.00,,,0.00,WeatherTracker,2013-09-03 11:05:00,
2013-09-03 04:10:00,60.8,57.5,29.87,NNW,342,0.0,2.0,89,0.00,,,0.00,WeatherTracker,2013-09-03 11:10:00,
2013-09-03 04:15:00,60.8,57.5,29.87,NNW,342,0.0,2.0,89,0.00,,,0.00,WeatherTracker,2013-09-03 11:15:00,
2013-09-03 04:20:00,60.7,57.4,29.87,NNW,342,0.0,1.0,89,0.00,,,0.00,WeatherTracker,2013-09-03 11:20:00,
2013-09-03 04:25:00,60.7,57.4,29.87,NNW,342,0.0,1.0,89,0.00,,,0.00,WeatherTracker,2013-09-03 11:25:00,
2013-09-03 04:30:00,60.7,57.4,29.87,NNW,342,1.0,0.0,89,0.00,,,0.00,WeatherTracker,2013-09-03 11:30:00,
2013-09-03 04:35:00,60.6,57.6,29.87,NNW,342,0.0,2.0,90,0.00,,,0.00,WeatherTracker,2013-09-03 11:35:00,
2013-09-03 04:40:00,60.6,57.6,29.87,NNW,342,0.0,2.0,90,0.00,,,0.00,WeatherTracker,2013-09-03 11:40:00,
2013-09-03 04:45:00,60.5,57.5,29.87,NNW,342,0.0,1.0,90,0.00,,,0.00,WeatherTracker,2013-09-03 11:45:00,
2013-09-03 04:50:00,60.5,57.5,29.87,NNW,342,1.0,2.0,90,0.00,,,0.00,WeatherTracker,2013-09-03 11:50:00,
2013-09-03 04:55:00,60.4,57.5,29.87,NNW,342,1.0,2.0,90,0.00,,,0.00,WeatherTracker,2013-09-03 11:55:00,
2013-09-03 05:00:00,60.3,57.4,29.87,NNW,342,0.0,2.0,90,0.00,,,0.00,WeatherTracker,2013-09-03 12:00:00,
2013-09-03 05:05:00,60.1,56.8,29.87,NNW,342,1.0,4.0,89,0.00,,,0.00,WeatherTracker,2013-09-03 12:05:00,
2013-09-03 05:11:00,59.4,56.2,29.87,NNW,342,1.0,4.0,89,0.00,,,0.00,WeatherTracker,2013-09-03 12:11:00,
2013-09-03 05:16:00,59.0,55.8,29.88,NNW,342,2.0,3.0,89,0.00,,,0.00,WeatherTracker,2013-09-03 12:16:00,
2013-09-03 05:21:00,58.9,55.7,29.88,NNW,342,2.0,3.0,89,0.00,,,0.00,WeatherTracker,2013-09-03 12:21:00,
2013-09-03 05:26:00,58.9,55.7,29.88,NNW,342,2.0,3.0,89,0.00,,,0.00,WeatherTracker,2013-09-03 12:26:00,
2013-09-03 05:31:00,58.8,55.6,29.88,NNW,342,0.0,3.0,89,0.00,,,0.00,WeatherTracker,2013-09-03 12:31:00,
2013-09-03 05:36:00,58.9,55.7,29.88,NNW,342,1.0,3.0,89,0.00,,,0.00,WeatherTracker,2013-09-03 12:36:00,
2013-09-03 05:41:00,58.8,55.6,29.88,NNW,342,2.0,3.0,89,0.00,,,0.00,WeatherTracker,2013-09-03 12:41:00,
2013-09-03 05:46:00,58.8,55.6,29.88,NNW,342,2.0,3.0,89,0.00,,,0.00,WeatherTracker,2013-09-03 12:46:00,
2013-09-03 05:51:00,58.9,55.7,29.88,NNW,342,1.0,3.0,89,0.00,,,0.00,WeatherTracker,2013-09-03 12:51:00,
2013-09-03 05:56:00,59.0,55.8,29.88,NNW,342,0.0,3.0,89,0.00,,,0.00,WeatherTracker,2013-09-03 12:56:00,
2013-09-03 06:01:00,59.0,55.8,29.88,NNW,342,0.0,3.0,89,0.00,,,0.00,WeatherTracker,2013-09-03 13:01:00,
2013-09-03 06:06:00,59.3,56.1,29.88,NNW,342,0.0,2.0,89,0.00,,,0.00,WeatherTracker,2013-09-03 13:06:00,
2013-09-03 06:11:00,59.6,56.7,29.88,NNW,342,0.0,2.0,90,0.00,,,0.00,WeatherTracker,2013-09-03 13:11:00,
2013-09-03 06:16:00,59.6,56.7,29.88,NNW,342,0.0,1.0,90,0.00,,,0.00,WeatherTracker,2013-09-03 13:16:00,
2013-09-03 06:22:00,59.5,56.6,29.88,NNW,342,0.0,0.0,90,0.00,,,0.00,WeatherTracker,2013-09-03 13:22:00,
2013-09-03 06:27:00,59.5,56.6,29.88,NNW,342,0.0,0.0,90,0.00,,,0.00,WeatherTracker,2013-09-03 13:27:00,
2013-09-03 06:32:00,59.3,56.4,29.89,NNW,342,0.0,0.0,90,0.00,,,0.00,WeatherTracker,2013-09-03 13:32:00,
2013-09-03 06:37:00,59.4,56.5,29.89,NNW,342,0.0,1.0,90,0.00,,,0.00,WeatherTracker,2013-09-03 13:37:00,
2013-09-03 06:42:00,59.5,56.6,29.89,NNW,342,2.0,2.0,90,0.00,,,0.00,WeatherTracker,2013-09-03 13:42:00,
2013-09-03 06:47:00,59.1,56.2,29.89,NNW,342,1.0,2.0,90,0.00,,,0.00,WeatherTracker,2013-09-03 13:47:00,
2013-09-03 06:52:00,58.8,55.9,29.89,NNW,342,4.0,5.0,90,0.00,,,0.00,WeatherTracker,2013-09-03 13:52:00,
2013-09-03 06:57:00,58.4,55.5,29.89,NNW,342,3.0,5.0,90,0.00,,,0.00,WeatherTracker,2013-09-03 13:57:00,
2013-09-03 07:02:00,58.4,55.5,29.90,NNW,342,4.0,5.0,90,0.00,,,0.00,WeatherTracker,2013-09-03 14:02:00,
2013-09-03 07:07:00,58.3,55.4,29.90,NNW,342,4.0,5.0,90,0.00,,,0.00,WeatherTracker,2013-09-03 14:07:00,
2013-09-03 07:12:00,58.6,56.0,29.90,NNW,341,4.0,5.0,91,0.00,,,0.00,WeatherTracker,2013-09-03 14:12:00,
2013-09-03 07:17:00,58.9,56.3,29.90,NNW,342,1.0,5.0,91,0.00,,,0.00,WeatherTracker,2013-09-03 14:17:00,
2013-09-03 07:22:00,59.1,56.5,29.90,NNW,342,0.0,4.0,91,0.00,,,0.00,WeatherTracker,2013-09-03 14:22:00,
2013-09-03 07:27:00,59.3,56.7,29.90,NNW,341,0.0,2.0,91,0.00,,,0.00,WeatherTracker,2013-09-03 14:27:00,
2013-09-03 07:32:00,59.6,57.0,29.90,NNW,342,0.0,1.0,91,0.00,,,0.00,WeatherTracker,2013-09-03 14:32:00,
2013-09-03 07:37:00,60.1,57.5,29.90,NNW,341,0.0,0.0,91,0.00,,,0.00,WeatherTracker,2013-09-03 14:37:00,
2013-09-03 07:42:00,61.0,58.4,29.90,NNW,342,0.0,1.0,91,0.00,,,0.00,WeatherTracker,2013-09-03 14:42:00,
2013-09-03 07:47:00,61.8,58.8,29.90,NNW,342,0.0,2.0,90,0.00,,,0.00,WeatherTracker,2013-09-03 14:47:00,
2013-09-03 07:52:00,62.6,59.3,29.90,NNW,342,1.0,2.0,89,0.00,,,0.00,WeatherTracker,2013-09-03 14:52:00,
2013-09-03 07:57:00,62.5,58.9,29.90,NNW,342,0.0,2.0,88,0.00,,,0.00,WeatherTracker,2013-09-03 14:57:00,
2013-09-03 08:02:00,62.6,59.0,29.91,NNW,341,0.0,3.0,88,0.00,,,0.00,WeatherTracker,2013-09-03 15:02:00,
2013-09-03 08:07:00,62.9,59.3,29.91,NNW,342,0.0,3.0,88,0.00,,,0.00,WeatherTracker,2013-09-03 15:07:00,
2013-09-03 08:12:00,63.3,59.4,29.91,NNW,342,2.0,3.0,87,0.00,,,0.00,WeatherTracker,2013-09-03 15:12:00,
2013-09-03 08:18:00,63.7,60.1,29.90,NNW,342,2.0,3.0,88,0.00,,,0.00,WeatherTracker,2013-09-03 15:18:00,
2013-09-03 08:23:00,64.3,60.3,29.90,NNW,342,2.0,3.0,87,0.00,,,0.00,WeatherTracker,2013-09-03 15:23:00,
2013-09-03 08:28:00,64.9,60.6,29.90,NNW,342,0.0,4.0,86,0.00,,,0.00,WeatherTracker,2013-09-03 15:28:00,
2013-09-03 08:33:00,65.2,60.2,29.91,NNW,342,0.0,4.0,84,0.00,,,0.00,WeatherTracker,2013-09-03 15:33:00,
2013-09-03 08:38:00,65.4,60.1,29.91,NNW,342,1.0,4.0,83,0.00,,,0.00,WeatherTracker,2013-09-03 15:38:00,
2013-09-03 08:43:00,65.3,59.7,29.91,NNW,341,1.0,3.0,82,0.00,,,0.00,WeatherTracker,2013-09-03 15:43:00,
2013-09-03 08:48:00,64.7,59.4,29.91,NNW,342,0.0,3.0,83,0.00,,,0.00,WeatherTracker,2013-09-03 15:48:00,
2013-09-03 08:53:00,65.0,60.0,29.91,NNW,342,0.0,2.0,84,0.00,,,0.00,WeatherTracker,2013-09-03 15:53:00,
2013-09-03 08:58:00,65.7,60.4,29.91,NNW,342,0.0,1.0,83,0.00,,,0.00,WeatherTracker,2013-09-03 15:58:00,
2013-09-03 09:03:00,65.8,59.8,29.91,NNW,342,0.0,3.0,81,0.00,,,0.00,WeatherTracker,2013-09-03 16:03:00,
2013-09-03 09:08:00,65.5,60.2,29.91,NNW,342,0.0,3.0,83,0.00,,,0.00,WeatherTracker,2013-09-03 16:08:00,
2013-09-03 09:13:00,65.6,59.6,29.91,NNW,341,1.0,3.0,81,0.00,,,0.00,WeatherTracker,2013-09-03 16:13:00,
2013-09-03 09:18:00,66.1,60.1,29.91,NNW,341,0.0,1.0,81,0.00,,,0.00,WeatherTracker,2013-09-03 16:18:00,
2013-09-03 09:23:00,66.2,59.5,29.91,NNW,342,1.0,2.0,79,0.00,,,0.00,WeatherTracker,2013-09-03 16:23:00,
2013-09-03 09:28:00,65.5,58.8,29.91,NNW,341,2.0,3.0,79,0.00,,,0.00,WeatherTracker,2013-09-03 16:28:00,
2013-09-03 09:33:00,65.2,58.9,29.92,NNW,342,2.0,3.0,80,0.00,,,0.00,WeatherTracker,2013-09-03 16:33:00,
2013-09-03 09:38:00,65.2,59.2,29.92,NNW,342,2.0,4.0,81,0.00,,,0.00,WeatherTracker,2013-09-03 16:38:00,
2013-09-03 09:43:00,64.6,59.0,29.92,SE,128,5.0,6.0,82,0.00,,,0.00,WeatherTracker,2013-09-03 16:43:00,
2013-09-03 09:48:00,64.1,58.8,29.93,SE,142,4.0,6.0,83,0.00,,,0.00,WeatherTracker,2013-09-03 16:48:00,
2013-09-03 09:53:00,64.1,59.2,29.93,SSE,150,5.0,6.0,84,0.00,,,0.00,WeatherTracker,2013-09-03 16:53:00,
2013-09-03 09:58:00,64.3,59.0,29.93,SSE,150,3.0,6.0,83,0.00,,,0.00,WeatherTracker,2013-09-03 16:58:00,
2013-09-03 10:04:00,64.7,59.1,29.93,SSE,153,3.0,6.0,82,0.00,,,0.00,WeatherTracker,2013-09-03 17:04:00,
2013-09-03 10:09:00,65.2,59.6,29.93,SE,143,6.0,7.0,82,0.00,,,0.00,WeatherTracker,2013-09-03 17:09:00,
2013-09-03 10:14:00,65.6,59.6,29.93,SE,144,4.0,7.0,81,0.00,,,0.00,WeatherTracker,2013-09-03 17:14:00,
2013-09-03 10:19:00,65.9,59.5,29.93,SSE,152,6.0,9.0,80,0.00,,,0.00,WeatherTracker,2013-09-03 17:19:00,
2013-09-03 10:24:00,66.3,59.6,29.93,SSE,150,4.0,9.0,79,0.00,,,0.00,WeatherTracker,2013-09-03 17:24:00,
2013-09-03 10:29:00,67.0,59.9,29.93,SSE,161,5.0,10.0,78,0.00,,,0.00,WeatherTracker,2013-09-03 17:29:00,
2013-09-03 10:34:00,67.2,59.7,29.93,South,169,5.0,11.0,77,0.00,,,0.00,WeatherTracker,2013-09-03 17:34:00,
2013-09-03 10:39:00,67.8,60.0,29.93,South,180,8.0,12.0,76,0.00,,,0.00,WeatherTracker,2013-09-03 17:39:00,
2013-09-03 10:44:00,68.4,59.8,29.93,SSW,213,5.0,12.0,74,0.00,,,0.00,WeatherTracker,2013-09-03 17:44:00,
2013-09-03 10:49:00,69.4,59.2,29.93,WSW,250,4.0,12.0,70,0.00,,,0.00,WeatherTracker,2013-09-03 17:49:00,
2013-09-03 10:54:00,70.0,59.4,29.93,WNW,294,1.0,11.0,69,0.00,,,0.00,WeatherTracker,2013-09-03 17:54:00,
2013-09-03 10:59:00,69.9,60.5,29.93,South,172,1.0,11.0,72,0.00,,,0.00,WeatherTracker,2013-09-03 17:59:00,
2013-09-03 11:04:00,69.6,59.4,29.93,West,268,6.0,9.0,70,0.00,,,0.00,WeatherTracker,2013-09-03 18:04:00,
2013-09-03 11:09:00,70.6,58.7,29.93,WSW,254,3.0,12.0,66,0.00,,,0.00,WeatherTracker,2013-09-03 18:09:00,
2013-09-03 11:14:00,71.3,58.9,29.93,WSW,250,4.0,12.0,65,0.00,,,0.00,WeatherTracker,2013-09-03 18:14:00,
2013-09-03 11:19:00,70.7,59.6,29.93,SSW,213,5.0,14.0,68,0.00,,,0.00,WeatherTracker,2013-09-03 18:19:00,
2013-09-03 11:24:00,70.1,59.8,29.93,SW,225,0.0,14.0,70,0.00,,,0.00,WeatherTracker,2013-09-03 18:24:00,
2013-09-03 11:29:00,70.6,59.5,29.93,SSW,196,4.0,12.0,68,0.00,,,0.00,WeatherTracker,2013-09-03 18:29:00,
2013-09-03 11:34:00,70.1,59.8,29.93,SSW,203,5.0,11.0,70,0.00,,,0.00,WeatherTracker,2013-09-03 18:34:00,
2013-09-03 11:39:00,70.6,58.7,29.93,West,264,4.0,14.0,66,0.00,,,0.00,WeatherTracker,2013-09-03 18:39:00,
2013-09-03 11:44:00,71.3,59.3,29.93,West,279,0.0,15.0,66,0.00,,,0.00,WeatherTracker,2013-09-03 18:44:00,
2013-09-03 11:49:00,72.3,58.5,29.93,WSW,248,10.0,16.0,62,0.00,,,0.00,WeatherTracker,2013-09-03 18:49:00,
2013-09-03 11:54:00,71.9,58.6,29.93,West,269,14.0,18.0,63,0.00,,,0.00,WeatherTracker,2013-09-03 18:54:00,
2013-09-03 11:59:00,71.2,58.4,29.93,WSW,243,18.0,18.0,64,0.00,,,0.00,WeatherTracker,2013-09-03 18:59:00,
2013-09-03 12:04:00,71.0,58.2,29.93,SW,233,10.0,22.0,64,0.00,,,0.00,WeatherTracker,2013-09-03 19:04:00,
2013-09-03 12:09:00,70.9,59.0,29.93,SSW,206,12.0,22.0,66,0.00,,,0.00,WeatherTracker,2013-09-03 19:09:00,
2013-09-03 12:14:00,70.6,58.3,29.92,WSW,249,11.0,21.0,65,0.00,,,0.00,WeatherTracker,2013-09-03 19:14:00,
2013-09-03 12:19:00,70.5,59.0,29.92,WSW,258,21.0,21.0,67,0.00,,,0.00,WeatherTracker,2013-09-03 19:19:00,
2013-09-03 12:25:00,70.7,58.8,29.92,SSW,211,13.0,24.0,66,0.00,,,0.00,WeatherTracker,2013-09-03 19:25:00,
2013-09-03 12:30:00,70.0,59.4,29.91,SW,233,14.0,24.0,69,0.00,,,0.00,WeatherTracker,2013-09-03 19:30:00,
2013-09-03 12:35:00,68.8,59.4,29.91,SW,222,10.0,24.0,72,0.00,,,0.00,WeatherTracker,2013-09-03 19:35:00,
2013-09-03 12:40:00,69.0,60.0,29.91,South,190,11.0,24.0,73,0.00,,,0.00,WeatherTracker,2013-09-03 19:40:00,
2013-09-03 12:45:00,68.9,60.3,29.91,South,190,14.0,23.0,74,0.00,,,0.00,WeatherTracker,2013-09-03 19:45:00,
2013-09-03 12:50:00,68.6,60.4,29.91,WNW,288,11.0,22.0,75,0.00,,,0.00,WeatherTracker,2013-09-03 19:50:00,
2013-09-03 12:55:00,68.5,60.3,29.91,West,265,16.0,22.0,75,0.00,,,0.00,WeatherTracker,2013-09-03 19:55:00,
2013-09-03 13:00:00,68.9,60.3,29.91,WSW,245,15.0,22.0,74,0.00,,,0.00,WeatherTracker,2013-09-03 20:00:00,
2013-09-03 13:05:00,69.1,60.5,29.91,WSW,244,11.0,23.0,74,0.00,,,0.00,WeatherTracker,2013-09-03 20:05:00,
2013-09-03 13:10:00,69.0,60.7,29.91,SW,223,17.0,28.0,75,0.00,,,0.00,WeatherTracker,2013-09-03 20:10:00,
2013-09-03 13:15:00,68.9,60.3,29.91,SSW,211,19.0,30.0,74,0.00,,,0.00,WeatherTracker,2013-09-03 20:15:00,
2013-09-03 13:20:00,69.5,60.8,29.91,West,264,17.0,30.0,74,0.00,,,0.00,WeatherTracker,2013-09-03 20:20:00,
2013-09-03 13:25:00,69.6,60.9,29.91,SSW,206,18.0,29.0,74,0.00,,,0.00,WeatherTracker,2013-09-03 20:25:00,
2013-09-03 13:30:00,69.3,61.0,29.91,SW,236,14.0,28.0,75,0.00,,,0.00,WeatherTracker,2013-09-03 20:30:00,
2013-09-03 13:35:00,69.6,61.3,29.91,WSW,241,18.0,24.0,75,0.00,,,0.00,WeatherTracker,2013-09-03 20:35:00,
2013-09-03 13:40:00,69.8,61.1,29.91,SW,231,10.0,23.0,74,0.00,,,0.00,WeatherTracker,2013-09-03 20:40:00,
2013-09-03 13:45:00,70.3,61.6,29.91,SSW,198,15.0,22.0,74,0.00,,,0.00,WeatherTracker,2013-09-03 20:45:00,
2013-09-03 13:50:00,70.7,61.2,29.91,SW,219,15.0,19.0,72,0.00,,,0.00,WeatherTracker,2013-09-03 20:50:00,
2013-09-03 13:55:00,71.2,60.9,29.91,WSW,257,14.0,21.0,70,0.00,,,0.00,WeatherTracker,2013-09-03 20:55:00,
2013-09-03 14:00:00,72.0,61.3,29.91,SW,233,13.0,21.0,69,0.00,,,0.00,WeatherTracker,2013-09-03 21:00:00,
2013-09-03 15:15:00,70.4,61.3,29.89,SW,234,19.0,21.0,73,0.00,,,0.00,WeatherTracker,2013-09-03 22:15:00,
2013-09-03 15:20:00,70.4,60.9,29.89,SW,229,12.0,28.0,72,0.00,,,0.00,WeatherTracker,2013-09-03 22:20:00,
2013-09-03 15:25:00,70.5,61.4,29.89,SSW,213,10.0,28.0,73,0.00,,,0.00,WeatherTracker,2013-09-03 22:25:00,
2013-09-03 15:30:00,70.8,60.9,29.88,WSW,256,18.0,25.0,71,0.00,,,0.00,WeatherTracker,2013-09-03 22:30:00,
2013-09-03 15:35:00,71.1,60.8,29.88,WSW,246,7.0,25.0,70,0.00,,,0.00,WeatherTracker,2013-09-03 22:35:00,
2013-09-03 15:40:00,71.1,61.2,29.88,WSW,251,18.0,23.0,71,0.00,,,0.00,WeatherTracker,2013-09-03 22:40:00,
2013-09-03 15:45:00,70.7,60.8,29.88,WSW,244,11.0,23.0,71,0.00,,,0.00,WeatherTracker,2013-09-03 22:45:00,
2013-09-03 15:50:00,70.3,60.8,29.88,SW,232,19.0,30.0,72,0.00,,,0.00,WeatherTracker,2013-09-03 22:50:00,
2013-09-03 15:55:00,70.1,61.0,29.88,WSW,256,23.0,30.0,73,0.00,,,0.00,WeatherTracker,2013-09-03 22:55:00,
2013-09-03 16:00:00,70.0,61.3,29.88,WSW,242,12.0,28.0,74,0.00,,,0.00,WeatherTracker,2013-09-03 23:00:00,
2013-09-03 16:05:00,69.7,61.4,29.88,WSW,238,11.0,28.0,75,0.00,,,0.00,WeatherTracker,2013-09-03 23:05:00,
2013-09-03 16:10:00,70.0,60.9,29.88,SSW,207,10.0,25.0,73,0.00,,,0.00,WeatherTracker,2013-09-03 23:10:00,
2013-09-03 16:15:00,70.2,60.7,29.88,SSW,200,12.0,24.0,72,0.00,,,0.00,WeatherTracker,2013-09-03 23:15:00,
2013-09-03 16:20:00,70.0,60.9,29.88,SW,236,14.0,22.0,73,0.00,,,0.00,WeatherTracker,2013-09-03 23:20:00,
2013-09-03 16:25:00,69.6,60.9,29.88,WSW,250,12.0,23.0,74,0.00,,,0.00,WeatherTracker,2013-09-03 23:25:00,
2013-09-03 16:30:00,69.7,61.0,29.88,West,260,18.0,23.0,74,0.00,,,0.00,WeatherTracker,2013-09-03 23:30:00,
2013-09-03 16:35:00,69.5,61.2,29.88,WSW,258,13.0,23.0,75,0.00,,,0.00,WeatherTracker,2013-09-03 23:35:00,
2013-09-03 16:40:00,69.1,61.2,29.88,SW,236,15.0,22.0,76,0.00,,,0.00,WeatherTracker,2013-09-03 23:40:00,
2013-09-03 16:45:00,68.8,61.3,29.87,WSW,244,5.0,22.0,77,0.00,,,0.00,WeatherTracker,2013-09-03 23:45:00,
2013-09-03 16:50:00,68.6,61.5,29.87,West,271,25.0,27.0,78,0.00,,,0.00,WeatherTracker,2013-09-03 23:50:00,
2013-09-03 16:55:00,68.5,61.7,29.87,WSW,240,12.0,27.0,79,0.00,,,0.00,WeatherTracker,2013-09-03 23:55:00,
2013-09-03 17:00:00,68.5,61.7,29.87,SW,217,8.0,25.0,79,0.00,,,0.00,WeatherTracker,2013-09-04 00:00:00,
2013-09-03 17:06:00,68.9,61.4,29.87,WSW,244,13.0,22.0,77,0.00,,,0.00,WeatherTracker,2013-09-04 00:06:00,
2013-09-03 17:11:00,69.3,61.4,29.87,SW,217,11.0,25.0,76,0.00,,,0.00,WeatherTracker,2013-09-04 00:11:00,
2013-09-03 17:16:00,69.2,61.3,29.87,West,268,11.0,25.0,76,0.00,,,0.00,WeatherTracker,2013-09-04 00:16:00,
2013-09-03 17:21:00,69.0,61.1,29.87,SSW,198,10.0,27.0,76,0.00,,,0.00,WeatherTracker,2013-09-04 00:21:00,
2013-09-03 17:26:00,69.2,61.3,29.87,WSW,250,11.0,27.0,76,0.00,,,0.00,WeatherTracker,2013-09-04 00:26:00,
2013-09-03 17:31:00,68.8,61.3,29.87,WSW,254,13.0,21.0,77,0.00,,,0.00,WeatherTracker,2013-09-04 00:31:00,
2013-09-03 17:36:00,68.6,61.5,29.87,WSW,250,14.0,21.0,78,0.00,,,0.00,WeatherTracker,2013-09-04 00:36:00,
2013-09-03 17:41:00,68.1,61.3,29.87,WSW,247,16.0,21.0,79,0.00,,,0.00,WeatherTracker,2013-09-04 00:41:00,
2013-09-03 17:46:00,67.8,61.0,29.87,West,265,11.0,23.0,79,0.00,,,0.00,WeatherTracker,2013-09-04 00:46:00,
2013-09-03 17:51:00,67.7,61.3,29.87,SSW,211,16.0,23.0,80,0.00,,,0.00,WeatherTracker,2013-09-04 00:51:00,
2013-09-03 17:56:00,67.5,61.1,29.87,WSW,253,6.0,25.0,80,0.00,,,0.00,WeatherTracker,2013-09-04 00:56:00,
2013-09-03 18:01:00,67.3,61.3,29.87,West,261,6.0,25.0,81,0.00,,,0.00,WeatherTracker,2013-09-04 01:01:00,
2013-09-03 18:06:00,66.9,61.2,29.87,SW,225,15.0,24.0,82,0.00,,,0.00,WeatherTracker,2013-09-04 01:06:00,
2013-09-03 18:11:00,66.7,61.0,29.87,West,272,7.0,24.0,82,0.00,,,0.00,WeatherTracker,2013-09-04 01:11:00,
2013-09-03 18:16:00,66.9,61.2,29.87,SW,234,13.0,26.0,82,0.00,,,0.00,WeatherTracker,2013-09-04 01:16:00,
2013-09-03 18:21:00,67.0,61.0,29.87,WNW,282,14.0,26.0,81,0.00,,,0.00,WeatherTracker,2013-09-04 01:21:00,
2013-09-03 18:26:00,67.3,61.3,29.87,West,264,16.0,22.0,81,0.00,,,0.00,WeatherTracker,2013-09-04 01:26:00,
2013-09-03 18:31:00,67.2,61.2,29.86,West,260,9.0,23.0,81,0.00,,,0.00,WeatherTracker,2013-09-04 01:31:00,
2013-09-03 18:37:00,67.1,61.1,29.86,WSW,251,6.0,23.0,81,0.00,,,0.00,WeatherTracker,2013-09-04 01:37:00,
2013-09-03 18:42:00,67.3,60.9,29.86,SW,230,13.0,22.0,80,0.00,,,0.00,WeatherTracker,2013-09-04 01:42:00,
2013-09-03 18:47:00,67.5,60.8,29.86,WSW,239,14.0,22.0,79,0.00,,,0.00,WeatherTracker,2013-09-04 01:47:00,
2013-09-03 18:52:00,67.7,60.9,29.86,West,278,11.0,21.0,79,0.00,,,0.00,WeatherTracker,2013-09-04 01:52:00,
2013-09-03 18:57:00,67.5,60.4,29.86,SW,215,11.0,20.0,78,0.00,,,0.00,WeatherTracker,2013-09-04 01:57:00,
2013-09-03 19:02:00,67.1,60.4,29.86,SW,229,16.0,19.0,79,0.00,,,0.00,WeatherTracker,2013-09-04 02:02:00,
2013-09-03 19:07:00,66.9,60.2,29.86,West,259,12.0,18.0,79,0.00,,,0.00,WeatherTracker,2013-09-04 02:07:00,
2013-09-03 19:12:00,66.7,60.3,29.86,WSW,250,11.0,19.0,80,0.00,,,0.00,WeatherTracker,2013-09-04 02:12:00,
2013-09-03 19:17:00,66.5,60.1,29.86,WSW,252,15.0,22.0,80,0.00,,,0.00,WeatherTracker,2013-09-04 02:17:00,
2013-09-03 19:22:00,66.4,60.0,29.86,SW,226,14.0,22.0,80,0.00,,,0.00,WeatherTracker,2013-09-04 02:22:00,
2013-09-03 19:27:00,66.2,60.2,29.86,West,276,12.0,20.0,81,0.00,,,0.00,WeatherTracker,2013-09-04 02:27:00,
2013-09-03 19:32:00,66.5,60.1,29.86,West,267,17.0,21.0,80,0.00,,,0.00,WeatherTracker,2013-09-04 02:32:00,
2013-09-03 19:37:00,66.3,59.9,29.86,WSW,248,13.0,21.0,80,0.00,,,0.00,WeatherTracker,2013-09-04 02:37:00,
2013-09-03 19:42:00,65.9,59.9,29.86,West,259,6.0,20.0,81,0.00,,,0.00,WeatherTracker,2013-09-04 02:42:00,
2013-09-03 19:47:00,65.6,60.0,29.86,WSW,254,9.0,18.0,82,0.00,,,0.00,WeatherTracker,2013-09-04 02:47:00,
2013-09-03 19:52:00,65.5,59.9,29.86,WSW,247,16.0,18.0,82,0.00,,,0.00,WeatherTracker,2013-09-04 02:52:00,
2013-09-03 19:57:00,65.6,60.0,29.86,WSW,256,9.0,19.0,82,0.00,,,0.00,WeatherTracker,2013-09-04 02:57:00,
2013-09-03 20:02:00,65.5,59.9,29.87,WSW,246,6.0,20.0,82,0.00,,,0.00,WeatherTracker,2013-09-04 03:02:00,
2013-09-03 20:07:00,65.5,59.9,29.87,West,267,10.0,20.0,82,0.00,,,0.00,WeatherTracker,2013-09-04 03:07:00,
2013-09-03 20:13:00,65.6,60.0,29.87,West,259,14.0,17.0,82,0.00,,,0.00,WeatherTracker,2013-09-04 03:13:00,
2013-09-03 20:18:00,65.7,59.7,29.87,SW,232,9.0,17.0,81,0.00,,,0.00,WeatherTracker,2013-09-04 03:18:00,
2013-09-03 20:23:00,65.9,59.5,29.87,West,269,14.0,17.0,80,0.00,,,0.00,WeatherTracker,2013-09-04 03:23:00,
2013-09-03 20:28:00,66.1,59.4,29.87,West,261,14.0,17.0,79,0.00,,,0.00,WeatherTracker,2013-09-04 03:28:00,
2013-09-03 20:33:00,66.4,59.3,29.87,West,261,9.0,16.0,78,0.00,,,0.00,WeatherTracker,2013-09-04 03:33:00,
2013-09-03 20:38:00,66.5,59.4,29.87,WSW,249,11.0,16.0,78,0.00,,,0.00,WeatherTracker,2013-09-04 03:38:00,
2013-09-03 20:43:00,66.5,59.1,29.87,West,273,12.0,16.0,77,0.00,,,0.00,WeatherTracker,2013-09-04 03:43:00,
2013-09-03 20:48:00,66.7,58.9,29.88,West,281,8.0,16.0,76,0.00,,,0.00,WeatherTracker,2013-09-04 03:48:00,
2013-09-03 20:53:00,66.9,59.1,29.88,West,273,3.0,15.0,76,0.00,,,0.00,WeatherTracker,2013-09-04 03:53:00,
2013-09-03 20:58:00,66.9,58.7,29.88,WNW,295,5.0,13.0,75,0.00,,,0.00,WeatherTracker,2013-09-04 03:58:00,
2013-09-03 21:01:00,66.8,58.6,29.88,WSW,252,10.0,11.0,75,0.00,,,0.00,WeatherTracker,2013-09-04 04:01:00,
2013-09-03 21:04:00,66.8,58.6,29.88,West,279,6.0,11.0,75,0.00,,,0.00,WeatherTracker,2013-09-04 04:04:00,
2013-09-03 21:05:00,66.8,59.0,29.88,WNW,288,3.0,11.0,76,0.00,,,0.00,WeatherTracker,2013-09-04 04:05:00,
2013-09-03 21:10:00,66.8,59.0,29.88,WSW,257,3.0,10.0,76,0.00,,,0.00,WeatherTracker,2013-09-04 04:10:00,
2013-09-03 21:15:00,66.7,59.3,29.88,NNW,342,3.0,7.0,77,0.00,,,0.00,WeatherTracker,2013-09-04 04:15:00,
2013-09-03 21:20:00,66.4,59.0,29.88,NNW,341,4.0,8.0,77,0.00,,,0.00,WeatherTracker,2013-09-04 04:20:00,
2013-09-03 21:25:00,66.1,59.0,29.88,North,360,4.0,8.0,78,0.00,,,0.00,WeatherTracker,2013-09-04 04:25:00,
2013-09-03 21:30:00,66.0,58.9,29.88,North,9,4.0,9.0,78,0.00,,,0.00,WeatherTracker,2013-09-04 04:30:00,
2013-09-03 21:35:00,65.9,59.2,29.88,West,281,3.0,9.0,79,0.00,,,0.00,WeatherTracker,2013-09-04 04:35:00,
2013-09-03 21:40:00,65.8,59.1,29.88,West,281,0.0,6.0,79,0.00,,,0.00,WeatherTracker,2013-09-04 04:40:00,
2013-09-03 21:45:00,65.7,59.0,29.89,West,281,0.0,5.0,79,0.00,,,0.00,WeatherTracker,2013-09-04 04:45:00,
2013-09-03 21:50:00,65.5,59.2,29.89,West,281,0.0,1.0,80,0.00,,,0.00,WeatherTracker,2013-09-04 04:50:00,
2013-09-03 21:55:00,65.2,58.9,29.89,West,281,0.0,2.0,80,0.00,,,0.00,WeatherTracker,2013-09-04 04:55:00,
2013-09-03 22:00:00,65.0,59.0,29.89,West,281,0.0,2.0,81,0.00,,,0.00,WeatherTracker,2013-09-04 05:00:00,
2013-09-03 22:05:00,64.8,59.2,29.89,West,280,0.0,1.0,82,0.00,,,0.00,WeatherTracker,2013-09-04 05:05:00,
2013-09-03 22:10:00,64.6,59.0,29.89,West,281,0.0,1.0,82,0.00,,,0.00,WeatherTracker,2013-09-04 05:10:00,
2013-09-03 22:16:00,64.4,59.1,29.89,West,280,0.0,0.0,83,0.00,,,0.00,WeatherTracker,2013-09-04 05:16:00,
2013-09-03 22:21:00,64.1,58.5,29.89,West,281,0.0,0.0,82,0.00,,,0.00,WeatherTracker,2013-09-04 05:21:00,
2013-09-03 22:26:00,63.9,58.6,29.89,West,280,0.0,0.0,83,0.00,,,0.00,WeatherTracker,2013-09-04 05:26:00,
2013-09-03 22:31:00,63.8,58.5,29.90,West,281,0.0,0.0,83,0.00,,,0.00,WeatherTracker,2013-09-04 05:31:00,
2013-09-03 22:36:00,63.7,58.4,29.90,West,280,0.0,0.0,83,0.00,,,0.00,WeatherTracker,2013-09-04 05:36:00,
2013-09-03 22:41:00,63.6,58.3,29.90,West,281,0.0,0.0,83,0.00,,,0.00,WeatherTracker,2013-09-04 05:41:00,
2013-09-03 22:46:00,63.5,58.6,29.89,West,281,0.0,0.0,84,0.00,,,0.00,WeatherTracker,2013-09-04 05:46:00,
2013-09-03 22:51:00,63.3,58.4,29.89,West,280,0.0,0.0,84,0.00,,,0.00,WeatherTracker,2013-09-04 05:51:00,
2013-09-03 22:56:00,63.1,58.2,29.89,West,281,0.0,0.0,84,0.00,,,0.00,WeatherTracker,2013-09-04 05:56:00,
2013-09-03 23:01:00,63.0,58.4,29.90,West,280,0.0,0.0,85,0.00,,,0.00,WeatherTracker,2013-09-04 06:01:00,
2013-09-03 23:06:00,62.9,58.3,29.90,West,280,0.0,0.0,85,0.00,,,0.00,WeatherTracker,2013-09-04 06:06:00,
2013-09-03 23:11:00,62.8,58.2,29.90,West,281,0.0,0.0,85,0.00,,,0.00,WeatherTracker,2013-09-04 06:11:00,
2013-09-03 23:16:00,62.7,58.4,29.90,West,280,0.0,0.0,86,0.00,,,0.00,WeatherTracker,2013-09-04 06:16:00,
2013-09-03 23:21:00,62.9,58.6,29.90,West,280,0.0,0.0,86,0.00,,,0.00,WeatherTracker,2013-09-04 06:21:00,
2013-09-03 23:26:00,62.7,58.4,29.90,West,281,0.0,0.0,86,0.00,,,0.00,WeatherTracker,2013-09-04 06:26:00,
2013-09-03 23:31:00,62.6,58.7,29.90,West,280,0.0,0.0,87,0.00,,,0.00,WeatherTracker,2013-09-04 06:31:00,
2013-09-03 23:36:00,62.7,58.8,29.90,West,281,0.0,0.0,87,0.00,,,0.00,WeatherTracker,2013-09-04 06:36:00,
2013-09-03 23:41:00,62.6,58.7,29.90,West,281,0.0,0.0,87,0.00,,,0.00,WeatherTracker,2013-09-04 06:41:00,
2013-09-03 23:46:00,62.4,58.5,29.90,West,281,1.0,1.0,87,0.00,,,0.00,WeatherTracker,2013-09-04 06:46:00,
2013-09-03 23:51:00,62.3,58.7,29.90,West,280,0.0,2.0,88,0.00,,,0.00,WeatherTracker,2013-09-04 06:51:00,
2013-09-03 23:56:00,62.2,58.6,29.90,West,280,0.0,2.0,88,0.00,,,0.00,WeatherTracker,2013-09-04 06:56:00,